Flight Track Log - Related Links

Times and Time Zones

All times are in EDT time to prevent confusion due to time zone crossing. See the SWA550 flight status page for this flight to view local times or setup timezone preferences in your user account.

Time Position Orientation Groundspeed Altitude Reporting Facility
EDT Latitude Longitude Course Direction KTS MPH feet Rate Location/Type
Fri 09:19:58 AM 29.6314 -95.2919 222° Southwest 171 197 700  Level Houston Center
Fri 09:20:22 AM 29.6181 -95.3056 222° Southwest 196 226 1,500 2,328 Climbing Houston Center
Fri 09:21:05 AM 29.5856 -95.3361 219° Southwest 218 251 3,300 2,852 Climbing Houston Center
Fri 09:21:23 AM 29.5697 -95.3500 217° Southwest 238 274 4,400 1,645 Climbing Houston Center
Fri 09:22:07 AM 29.5314 -95.3764 211° Southwest 229 264 5,000 590 Climbing Houston Center
Fri 09:22:24 AM 29.5156 -95.4019 235° Southwest 249 287 5,000  Level Houston Center
Fri 09:23:08 AM 29.5211 -95.4478 278° West 242 278 5,000  Level Houston Center
Fri 09:23:25 AM 29.5247 -95.4778 278° West 246 283 5,000 1,180 Level Houston Center
Fri 09:24:09 AM 29.5314 -95.5278 279° West 250 288 6,200 2,459 Climbing Houston Center
Fri 09:24:26 AM 29.5361 -95.5581 280° West 256 295 7,500 2,852 Climbing Houston Center
Fri 09:25:10 AM 29.5406 -95.6092 276° West 255 293 9,100 2,264 Climbing Houston Center
Fri 09:26:12 AM 29.5303 -95.6978 262° West 286 329 11,500 2,293 Climbing Houston Center
Fri 09:27:13 AM 29.4644 -95.7514 215° Southwest 288 331 13,800 2,508 Climbing Houston Center
Fri 09:28:14 AM 29.3719 -95.8247 215° Southwest 332 382 16,600 2,705 Climbing Houston Center
Fri 09:29:15 AM 29.2956 -95.8836 214° Southwest 334 384 19,300 2,410 Climbing Houston Center
Fri 09:30:16 AM 29.2211 -95.9444 216° Southwest 330 380 21,500 1,171 Climbing Houston Center
Fri 09:31:18 AM 29.1461 -96.0047 215° Southwest 346 398 21,700 732 Climbing Houston Center
Fri 09:32:19 AM 29.0536 -96.0775 215° Southwest 391 450 23,000 1,426 Climbing Houston Center
Fri 09:33:20 AM 28.9650 -96.1542 217° Southwest 399 459 24,600 1,770 Climbing Houston Center
Fri 09:35:22 AM 28.7867 -96.3047 217° Southwest 395 455 28,400 1,761 Climbing Houston Center
Fri 09:36:24 AM 28.6794 -96.3867 214° Southwest 387 445 30,000 1,512 Climbing Houston Center
Fri 09:37:25 AM 28.5872 -96.4567 214° Southwest 393 452 31,500 1,574 Climbing Houston Center
Fri 09:38:26 AM 28.4964 -96.5211 212° Southwest 386 444 33,200 1,475 Climbing Houston Center
Fri 09:39:27 AM 28.4722 -96.6208 255° West 352 405 34,500 1,220 Climbing Houston Center
Fri 09:40:29 AM 28.4761 -96.7228 273° West 331 381 35,700 732 Climbing Houston Center
Fri 09:41:30 AM 28.4772 -96.8253 271° West 324 373 36,000 148 Climbing Houston Center
Fri 09:42:31 AM 28.4800 -96.9256 272° West 321 369 36,000  Level Houston Center
Fri 09:43:32 AM 28.4831 -97.0289 272° West 324 373 36,000  Level Houston Center
Fri 09:44:34 AM 28.4856 -97.1319 272° West 326 375 36,000  Level Houston Center
Fri 09:45:35 AM 28.4878 -97.2347 271° West 325 374 36,000  Level Houston Center
Fri 09:46:36 AM 28.4900 -97.3375 271° West 326 375 36,000  Level Houston Center
Fri 09:47:37 AM 28.4928 -97.4389 272° West 324 373 36,000  Level Houston Center
Fri 09:48:38 AM 28.4944 -97.5608 271° West 323 372 36,000  Level Houston Center
Fri 09:49:39 AM 28.4961 -97.6631 271° West 323 372 36,000  Level Houston Center
Fri 09:50:41 AM 28.4983 -97.7667 271° West 327 376 36,000  Level Houston Center
Fri 09:51:42 AM 28.4997 -97.8683 271° West 325 374 36,000  Level Houston Center
Fri 09:52:43 AM 28.5022 -97.9719 272° West 326 375 36,000  Level Houston Center
Fri 09:53:44 AM 28.5033 -98.0756 271° West 328 377 36,000  Level Houston Center
Fri 09:54:46 AM 28.5253 -98.1783 284° West 348 400 36,000  Level Houston Center
Fri 09:55:47 AM 28.5842 -98.2636 308° West 349 402 36,000  Level Houston Center
Fri 09:56:48 AM 28.6450 -98.3497 309° West 347 399 36,000  Level Houston Center
Fri 09:57:50 AM 28.7150 -98.4494 309° West 349 402 36,000  Level Houston Center
Fri 09:58:51 AM 28.7811 -98.5447 308° West 354 407 36,000  Level Houston Center
Fri 09:59:52 AM 28.8425 -98.6322 309° West 353 406 36,000  Level Houston Center
Fri 10:00:54 AM 28.9044 -98.7203 309° West 355 409 36,000  Level Houston Center
Fri 10:01:55 AM 28.9658 -98.8089 308° West 355 409 36,000  Level Houston Center
Fri 10:02:57 AM 29.0328 -98.9050 309° West 357 411 36,000  Level Houston Center
Fri 10:03:58 AM 29.0942 -98.9947 308° West 357 411 36,000  Level Houston Center
Fri 10:05:00 AM 29.1558 -99.0844 308° West 358 412 36,000  Level Houston Center
Fri 10:06:01 AM 29.2183 -99.1742 309° West 359 413 36,000  Level Houston Center
Fri 10:07:03 AM 29.2844 -99.2706 308° West 358 412 36,000  Level Houston Center
Fri 10:08:04 AM 29.3361 -99.3467 308° West 358 412 36,000  Level Houston Center
Fri 10:09:06 AM 29.4106 -99.4547 308° West 361 415 36,000  Level Houston Center
Fri 10:10:07 AM 29.4717 -99.5450 308° West 358 412 36,000  Level Houston Center
Fri 10:11:09 AM 29.5336 -99.6369 308° West 362 417 36,000  Level Houston Center
Fri 10:12:10 AM 29.5944 -99.7286 307° West 361 415 36,000  Level Houston Center
Fri 10:13:12 AM 29.6575 -99.8194 309° West 363 418 36,000  Level Houston Center
Fri 10:14:13 AM 29.7186 -99.9114 307° West 362 417 36,000  Level Houston Center
Fri 10:15:15 AM 29.7803 -100.0014 308° West 358 412 36,000  Level Houston Center
Fri 10:16:16 AM 29.8408 -100.0928 307° West 358 412 36,000  Level Houston Center
Fri 10:17:18 AM 29.9022 -100.1853 307° West 361 415 36,000  Level Houston Center
Fri 10:18:20 AM 29.9747 -100.2856 310° West 356 410 36,000  Level Houston Center
Fri 10:19:21 AM 30.0308 -100.3781 305° West 390 449 36,000  Level Houston Center
Fri 10:20:23 AM 30.1047 -100.4878 308° West 367 422 36,000  Level Houston Center
Fri 10:21:24 AM 30.1664 -100.5811 307° West 365 420 36,000  Level Houston Center
Fri 10:22:26 AM 30.2278 -100.6744 307° West 365 420 36,000  Level Houston Center
Fri 10:23:27 AM 30.2889 -100.7681 307° West 366 421 36,000  Level Houston Center
Fri 10:24:29 AM 30.3514 -100.8611 308° West 368 423 36,000  Level Houston Center
Fri 10:25:30 AM 30.4136 -100.9556 307° West 371 427 36,000  Level Houston Center
Fri 10:26:31 AM 30.4733 -101.0489 307° West 363 418 36,000  Level Houston Center
Fri 10:27:33 AM 30.5350 -101.1439 307° West 368 423 36,000  Level Houston Center
Fri 10:28:34 AM 30.5958 -101.2378 307° West 368 423 36,000  Level Houston Center
Fri 10:29:36 AM 30.6714 -101.3517 308° West 370 426 36,000  Level Houston Center
Fri 10:30:37 AM 30.7314 -101.4444 307° West 365 420 36,000  Level Houston Center
Fri 10:31:39 AM 30.7931 -101.5400 307° West 368 423 36,000  Level Houston Center
Fri 10:32:40 AM 30.8569 -101.6375 307° West 366 421 36,000  Level Houston Center
Fri 10:33:04 AM 30.8822 -101.6731 310° West 366 421 36,000  Level Albuquerque Center
Fri 10:34:06 AM 30.9425 -101.7669 307° West 364 419 36,000  Level Albuquerque Center
Fri 10:35:08 AM 31.0028 -101.8606 307° West 363 418 36,000  Level Albuquerque Center
Fri 10:36:10 AM 31.0600 -101.9483 307° West 362 417 36,000  Level Albuquerque Center
Fri 10:37:12 AM 31.1322 -102.0650 306° West 365 420 36,000  Level Albuquerque Center
Fri 10:38:14 AM 31.2039 -102.1556 313° West 377 434 36,000  Level Albuquerque Center
Fri 10:39:16 AM 31.2825 -102.2344 319° Northwest 377 434 36,000  Level Albuquerque Center
Fri 10:40:18 AM 31.3592 -102.3233 315° West 381 438 36,000  Level Albuquerque Center
Fri 10:41:20 AM 31.4375 -102.4103 317° Northwest 385 443 36,000  Level Albuquerque Center
Fri 10:42:22 AM 31.5150 -102.4975 316° Northwest 386 444 36,000  Level Albuquerque Center
Fri 10:43:24 AM 31.6056 -102.5967 317° Northwest 386 444 36,000  Level Albuquerque Center
Fri 10:44:26 AM 31.6833 -102.6836 316° Northwest 387 445 36,000  Level Albuquerque Center
Fri 10:45:28 AM 31.7608 -102.7714 316° Northwest 386 444 36,000  Level Albuquerque Center
Fri 10:46:30 AM 31.8378 -102.8581 316° Northwest 384 442 36,000  Level Albuquerque Center
Fri 10:47:32 AM 31.9294 -102.9628 316° Northwest 384 442 36,000  Level Albuquerque Center
Fri 10:48:34 AM 32.0075 -103.0492 317° Northwest 385 443 36,000  Level Albuquerque Center
Fri 10:49:36 AM 32.0747 -103.1253 316° Northwest 386 444 36,000  Level Albuquerque Center
Fri 10:50:38 AM 32.1683 -103.2314 316° Northwest 387 445 36,000  Level Albuquerque Center
Fri 10:51:15 AM 32.2156 -103.2864 315° West 391 450 36,000  Level Albuquerque Center
Fri 10:52:17 AM 32.2961 -103.3772 316° Northwest 396 456 36,000  Level Albuquerque Center
Fri 10:53:19 AM 32.3756 -103.4694 316° Northwest 400 460 36,000  Level Albuquerque Center
Fri 10:54:21 AM 32.4564 -103.5633 316° Northwest 403 464 36,000  Level Albuquerque Center
Fri 10:55:23 AM 32.5378 -103.6564 316° Northwest 406 467 36,000  Level Albuquerque Center
Fri 10:56:25 AM 32.6200 -103.7511 316° Northwest 410 472 36,000  Level Albuquerque Center
Fri 10:57:27 AM 32.7228 -103.8619 318° Northwest 424 488 36,000  Level Albuquerque Center
Fri 10:58:29 AM 32.8119 -103.9672 315° West 420 483 36,000  Level Albuquerque Center
Fri 10:59:31 AM 32.8956 -104.0650 316° Northwest 422 486 36,000  Level Albuquerque Center
Fri 11:00:33 AM 32.9861 -104.1708 316° Northwest 424 488 36,000  Level Albuquerque Center
Fri 11:01:35 AM 33.0714 -104.2683 316° Northwest 426 490 36,000  Level Albuquerque Center
Fri 11:02:37 AM 33.1608 -104.3767 315° West 426 490 36,000  Level Albuquerque Center
Fri 11:03:40 AM 33.2447 -104.4778 315° West 427 491 36,000  Level Albuquerque Center
Fri 11:04:42 AM 33.3303 -104.5767 316° Northwest 428 493 36,000  Level Albuquerque Center
Fri 11:05:44 AM 33.4172 -104.6817 315° West 430 495 36,000  Level Albuquerque Center
Fri 11:06:46 AM 33.5075 -104.7881 316° Northwest 427 491 36,000  Level Albuquerque Center
Fri 11:07:48 AM 33.5928 -104.8897 315° West 430 495 36,000  Level Albuquerque Center
Fri 11:08:50 AM 33.6836 -104.9972 315° West 427 491 36,000  Level Albuquerque Center
Fri 11:09:52 AM 33.7683 -105.0989 315° West 429 494 36,000 -339 Level Albuquerque Center
Fri 11:10:54 AM 33.8597 -105.2081 315° West 430 495 35,300 -774 Descending Albuquerque Center
Fri 11:11:56 AM 33.9369 -105.3006 315° West 442 509 34,400 -968 Descending Albuquerque Center
Fri 11:12:58 AM 34.0400 -105.4269 315° West 447 514 33,300 -968 Descending Albuquerque Center
Fri 11:14:00 AM 34.1306 -105.5361 315° West 451 519 32,400 -1,113 Descending Albuquerque Center
Fri 11:15:02 AM 34.2228 -105.6467 315° West 456 525 31,000 -1,887 Descending Albuquerque Center
Fri 11:16:04 AM 34.3117 -105.7553 315° West 455 524 28,500 -2,323 Descending Albuquerque Center
Fri 11:17:06 AM 34.3764 -105.8758 303° West 434 499 26,200 -2,177 Descending Albuquerque Center
Fri 11:18:08 AM 34.3914 -106.0114 278° West 409 471 24,000 -2,129 Descending Albuquerque Center
Fri 11:19:10 AM 34.4075 -106.1411 279° West 392 451 21,800 -2,143 Descending Albuquerque Center
Fri 11:19:32 AM 34.4125 -106.1981 276° West 377 434 21,000 -1,742 Descending Albuquerque Center
Fri 11:20:12 AM 34.4186 -106.2592 277° West 375 432 20,000 -1,900 Descending Albuquerque Center
Fri 11:20:32 AM 34.4269 -106.3153 280° West 355 409 19,100 -2,129 Descending Albuquerque Center
Fri 11:21:14 AM 34.4353 -106.3986 277° West 356 410 17,800 -1,672 Descending Albuquerque Center
Fri 11:21:33 AM 34.4403 -106.4381 279° West 332 382 17,400 -1,548 Descending Albuquerque Center
Fri 11:22:16 AM 34.4564 -106.5028 287° West 335 386 16,200 -1,672 Descending Albuquerque Center
Fri 11:22:34 AM 34.4794 -106.5258 321° Northwest 315 362 15,700 -1,645 Descending Albuquerque Center
Fri 11:23:18 AM 34.5339 -106.5464 343° North 319 367 14,500 -1,800 Descending Albuquerque Center
Fri 11:23:34 AM 34.5625 -106.5611 337° Northwest 306 352 13,900 -2,129 Descending Albuquerque Center
Fri 11:24:20 AM 34.6133 -106.5794 343° North 309 356 12,300 -2,262 Descending Albuquerque Center
Fri 11:24:35 AM 34.6425 -106.5922 340° North 305 351 11,600 -2,000 Descending Albuquerque Center
Fri 11:25:35 AM 34.7256 -106.6278 341° North 312 359 9,800 -1,486 Descending Albuquerque Center
Fri 11:26:24 AM 34.7761 -106.6478 342° North 309 356 8,900 -865 Descending Albuquerque Center
Fri 11:27:26 AM 34.8597 -106.6744 345° North 274 315 8,200 -677 Descending Albuquerque Center
Fri 11:28:28 AM 34.9233 -106.6847 352° North 248 285 7,500 -629 Descending Albuquerque Center
Fri 11:29:30 AM 34.9742 -106.6808 North 207 238 6,900 -823 Descending Albuquerque Center
Fri 11:30:32 AM 35.0061 -106.6506 38° Northeast 168 193 5,800 -726 Descending Albuquerque Center
Fri 11:31:34 AM 35.0372 -106.6089 48° Northeast 157 181 5,400 -387 Descending Albuquerque Center
Fri 11:33:00 AM 35.0333 -106.6000 22° Northeast  Level FlightAware Approximate

Login

Don't have an account? Register now (free) for customized features, flight alerts, and more!